sensor_id;sensor_type;location;lat;lon;timestamp;pressure;altitude;pressure_sealevel;temperature;humidity
54856;BME280;40748;53.168;5.800;2022-07-11T00:03:54;102446.48;;;18.38;67.53
54856;BME280;40748;53.168;5.800;2022-07-11T00:06:24;102444.53000000001;;;18.39;67.69
54856;BME280;40748;53.168;5.800;2022-07-11T00:08:54;102447.85999999999;;;18.38;67.85
54856;BME280;40748;53.168;5.800;2022-07-11T00:11:25;102449.39;;;18.37;67.96
54856;BME280;40748;53.168;5.800;2022-07-11T00:13:54;102441.58;;;18.33;68.00
54856;BME280;40748;53.168;5.800;2022-07-11T00:16:24;102444.23999999999;;;18.34;68.03
54856;BME280;40748;53.168;5.800;2022-07-11T00:18:54;102440.32999999999;;;18.33;68.19
54856;BME280;40748;53.168;5.800;2022-07-11T00:21:24;102438.83;;;18.31;68.35
54856;BME280;40748;53.168;5.800;2022-07-11T00:23:55;102435.54999999999;;;18.28;68.47
54856;BME280;40748;53.168;5.800;2022-07-11T00:26:25;102429.13;;;18.29;68.81
54856;BME280;40748;53.168;5.800;2022-07-11T00:28:54;102429.13;;;18.30;68.81
54856;BME280;40748;53.168;5.800;2022-07-11T00:31:24;102426.68000000001;;;18.29;68.98
54856;BME280;40748;53.168;5.800;2022-07-11T00:33:55;102426.68000000001;;;18.27;68.98
54856;BME280;40748;53.168;5.800;2022-07-11T00:36:24;102425.9;;;18.28;68.84
54856;BME280;40748;53.168;5.800;2022-07-11T00:38:54;102420.37;;;18.29;69.04
54856;BME280;40748;53.168;5.800;2022-07-11T00:41:24;102416.14;;;18.28;68.94
54856;BME280;40748;53.168;5.800;2022-07-11T00:43:55;102417.26000000001;;;18.23;68.94
54856;BME280;40748;53.168;5.800;2022-07-11T00:46:25;102416.17000000001;;;18.25;69.18
54856;BME280;40748;53.168;5.800;2022-07-11T00:51:25;102411.15;;;18.24;69.21
54856;BME280;40748;53.168;5.800;2022-07-11T00:53:55;102406.76000000001;;;18.21;69.09
54856;BME280;40748;53.168;5.800;2022-07-11T00:56:25;102406.25;;;18.22;69.26
54856;BME280;40748;53.168;5.800;2022-07-11T00:58:55;102406.25;;;18.23;69.26
54856;BME280;40748;53.168;5.800;2022-07-11T01:01:25;102405.56999999999;;;18.24;69.56
54856;BME280;40748;53.168;5.800;2022-07-11T01:03:55;102403.59000000001;;;18.21;69.67
54856;BME280;40748;53.168;5.800;2022-07-11T01:06:24;102404.85;;;18.24;69.60
54856;BME280;40748;53.168;5.800;2022-07-11T01:13:54;102400.94999999998;;;18.22;69.82
54856;BME280;40748;53.168;5.800;2022-07-11T01:16:25;102400.94999999998;;;18.24;69.87
54856;BME280;40748;53.168;5.800;2022-07-11T01:23:55;102405.10999999999;;;18.21;70.19
54856;BME280;40748;53.168;5.800;2022-07-11T01:26:24;102405.18;;;18.23;70.21
54856;BME280;40748;53.168;5.800;2022-07-11T01:31:25;102403.74999999999;;;18.19;70.40
54856;BME280;40748;53.168;5.800;2022-07-11T01:33:54;102402.86000000002;;;18.16;70.64
54856;BME280;40748;53.168;5.800;2022-07-11T01:36:24;102401.42000000001;;;18.14;70.82
54856;BME280;40748;53.168;5.800;2022-07-11T01:38:54;102405.85;;;18.15;71.11
54856;BME280;40748;53.168;5.800;2022-07-11T01:41:24;102406.96;;;18.11;71.04
54856;BME280;40748;53.168;5.800;2022-07-11T01:43:55;102407.81999999999;;;18.06;71.08
54856;BME280;40748;53.168;5.800;2022-07-11T01:46:24;102409.67000000001;;;18.08;71.51
54856;BME280;40748;53.168;5.800;2022-07-11T01:51:24;102403.7;;;18.07;71.61
54856;BME280;40748;53.168;5.800;2022-07-11T01:53:54;102402.31000000001;;;18.04;71.54
54856;BME280;40748;53.168;5.800;2022-07-11T01:56:25;102401.83;;;18.05;71.61
54856;BME280;40748;53.168;5.800;2022-07-11T01:58:54;102405.97;;;18.06;71.85
54856;BME280;40748;53.168;5.800;2022-07-11T02:03:54;102405.15000000001;;;18.05;71.83
54856;BME280;40748;53.168;5.800;2022-07-11T02:06:24;102406.88;;;18.06;71.89
54856;BME280;40748;53.168;5.800;2022-07-11T02:11:25;102405.2;;;18.05;72.07
54856;BME280;40748;53.168;5.800;2022-07-11T02:13:54;102403.33;;;18.02;72.03
54856;BME280;40748;53.168;5.800;2022-07-11T02:16:24;102403.33;;;18.04;72.03
54856;BME280;40748;53.168;5.800;2022-07-11T02:21:25;102403.81999999999;;;18.05;72.32
54856;BME280;40748;53.168;5.800;2022-07-11T02:23:55;102407.06999999999;;;18.02;72.39
54856;BME280;40748;53.168;5.800;2022-07-11T02:26:25;102404.9;;;18.03;72.47
54856;BME280;40748;53.168;5.800;2022-07-11T02:28:55;102400.71;;;18.04;72.54
54856;BME280;40748;53.168;5.800;2022-07-11T02:31:25;102395.26;;;18.03;72.58
54856;BME280;40748;53.168;5.800;2022-07-11T02:33:55;102395.26;;;18.00;72.53
54856;BME280;40748;53.168;5.800;2022-07-11T02:36:25;102395.01000000001;;;18.01;72.56
54856;BME280;40748;53.168;5.800;2022-07-11T02:43:54;102386.35;;;17.97;72.64
54856;BME280;40748;53.168;5.800;2022-07-11T02:46:25;102385.56999999999;;;17.99;72.61
54856;BME280;40748;53.168;5.800;2022-07-11T02:48:55;102389.17;;;18.00;72.90
54856;BME280;40748;53.168;5.800;2022-07-11T02:53:55;102387.72;;;17.97;72.83
54856;BME280;40748;53.168;5.800;2022-07-11T02:56:24;102385.88;;;17.99;72.78
54856;BME280;40748;53.168;5.800;2022-07-11T02:58:55;102384.7;;;18.00;72.75
54856;BME280;40748;53.168;5.800;2022-07-11T03:01:25;102388.06;;;18.01;72.90
54856;BME280;40748;53.168;5.800;2022-07-11T03:03:55;102387.25;;;17.99;72.98
54856;BME280;40748;53.168;5.800;2022-07-11T03:06:24;102389.0;;;18.02;73.07
54856;BME280;40748;53.168;5.800;2022-07-11T03:08:54;102391.81999999999;;;18.03;72.81
54856;BME280;40748;53.168;5.800;2022-07-11T03:13:55;102388.9;;;18.00;73.15
54856;BME280;40748;53.168;5.800;2022-07-11T03:16:25;102389.31;;;18.03;73.08
54856;BME280;40748;53.168;5.800;2022-07-11T03:21:25;102396.89;;;18.02;73.02
54856;BME280;40748;53.168;5.800;2022-07-11T03:23:55;102401.05;;;17.99;73.23
54856;BME280;40748;53.168;5.800;2022-07-11T03:26:25;102401.05;;;18.00;73.23
54856;BME280;40748;53.168;5.800;2022-07-11T03:28:54;102403.92;;;17.97;73.35
54856;BME280;40748;53.168;5.800;2022-07-11T03:33:55;102409.58;;;17.93;73.38
54856;BME280;40748;53.168;5.800;2022-07-11T03:38:55;102414.73000000001;;;17.91;73.46
54856;BME280;40748;53.168;5.800;2022-07-11T03:41:25;102409.53;;;17.92;73.38
54856;BME280;40748;53.168;5.800;2022-07-11T03:43:55;102409.09;;;17.88;73.62
54856;BME280;40748;53.168;5.800;2022-07-11T03:46:25;102405.46999999999;;;17.90;73.64
54856;BME280;40748;53.168;5.800;2022-07-11T03:48:55;102405.9;;;17.91;73.71
54856;BME280;40748;53.168;5.800;2022-07-11T03:53:55;102407.42;;;17.87;73.84
54856;BME280;40748;53.168;5.800;2022-07-11T03:58:55;102404.5;;;17.86;73.91
54856;BME280;40748;53.168;5.800;2022-07-11T04:01:25;102408.87;;;17.87;73.87
54856;BME280;40748;53.168;5.800;2022-07-11T04:03:55;102408.45;;;17.80;74.11
54856;BME280;40748;53.168;5.800;2022-07-11T04:06:25;102408.45;;;17.83;74.11
54856;BME280;40748;53.168;5.800;2022-07-11T04:08:55;102411.40000000001;;;17.82;74.31
54856;BME280;40748;53.168;5.800;2022-07-11T04:11:25;102406.68000000001;;;17.84;74.34
54856;BME280;40748;53.168;5.800;2022-07-11T04:13:55;102407.09999999999;;;17.81;74.33
54856;BME280;40748;53.168;5.800;2022-07-11T04:16:25;102407.09999999999;;;17.85;74.33
54856;BME280;40748;53.168;5.800;2022-07-11T04:21:25;102407.41;;;17.87;74.50
54856;BME280;40748;53.168;5.800;2022-07-11T04:23:55;102407.41;;;17.83;74.49
54856;BME280;40748;53.168;5.800;2022-07-11T04:26:25;102404.33;;;17.86;74.33
54856;BME280;40748;53.168;5.800;2022-07-11T04:28:55;102408.67000000001;;;17.88;74.49
54856;BME280;40748;53.168;5.800;2022-07-11T04:31:25;102408.17;;;17.90;74.59
54856;BME280;40748;53.168;5.800;2022-07-11T04:33:55;102406.40000000001;;;17.89;74.62
54856;BME280;40748;53.168;5.800;2022-07-11T04:36:25;102406.98;;;17.86;74.61
54856;BME280;40748;53.168;5.800;2022-07-11T04:38:55;102411.45;;;17.89;74.79
54856;BME280;40748;53.168;5.800;2022-07-11T04:41:25;102420.81000000001;;;17.90;74.81
54856;BME280;40748;53.168;5.800;2022-07-11T04:43:55;102422.75;;;17.87;74.96
54856;BME280;40748;53.168;5.800;2022-07-11T04:48:55;102418.12999999999;;;17.92;75.05
54856;BME280;40748;53.168;5.800;2022-07-11T04:51:25;102417.04;;;17.94;75.11
54856;BME280;40748;53.168;5.800;2022-07-11T04:53:55;102419.47;;;17.93;74.98
54856;BME280;40748;53.168;5.800;2022-07-11T04:56:25;102422.42000000001;;;17.96;74.83
54856;BME280;40748;53.168;5.800;2022-07-11T04:58:55;102431.93000000001;;;17.97;74.98
54856;BME280;40748;53.168;5.800;2022-07-11T05:01:25;102432.58;;;17.98;75.01
54856;BME280;40748;53.168;5.800;2022-07-11T05:03:55;102430.9;;;17.97;75.15
54856;BME280;40748;53.168;5.800;2022-07-11T05:06:25;102434.5;;;18.02;75.17
54856;BME280;40748;53.168;5.800;2022-07-11T05:08:55;102430.76000000001;;;18.06;75.19
54856;BME280;40748;53.168;5.800;2022-07-11T05:11:25;102431.45999999999;;;18.13;75.14
54856;BME280;40748;53.168;5.800;2022-07-11T05:13:55;102439.31;;;18.17;75.26
54856;BME280;40748;53.168;5.800;2022-07-11T05:16:25;102439.31;;;18.22;75.10
54856;BME280;40748;53.168;5.800;2022-07-11T05:18:55;102437.46;;;18.26;74.97
54856;BME280;40748;53.168;5.800;2022-07-11T05:21:25;102434.99999999999;;;18.27;74.75
54856;BME280;40748;53.168;5.800;2022-07-11T05:23:55;102438.12000000001;;;18.23;74.62
54856;BME280;40748;53.168;5.800;2022-07-11T05:26:25;102437.37000000001;;;18.25;74.58
54856;BME280;40748;53.168;5.800;2022-07-11T05:28:55;102439.87;;;18.28;74.98
54856;BME280;40748;53.168;5.800;2022-07-11T05:31:25;102439.87;;;18.34;74.98
54856;BME280;40748;53.168;5.800;2022-07-11T05:33:55;102441.49;;;18.35;75.07
54856;BME280;40748;53.168;5.800;2022-07-11T05:36:25;102446.34000000001;;;18.45;75.08
54856;BME280;40748;53.168;5.800;2022-07-11T05:38:55;102447.90000000001;;;18.53;75.10
54856;BME280;40748;53.168;5.800;2022-07-11T05:41:25;102449.18000000001;;;18.58;75.09
54856;BME280;40748;53.168;5.800;2022-07-11T05:43:55;102444.91;;;18.59;74.94
54856;BME280;40748;53.168;5.800;2022-07-11T05:46:25;102444.91;;;18.63;74.84
54856;BME280;40748;53.168;5.800;2022-07-11T05:48:55;102447.89000000001;;;18.69;74.83
54856;BME280;40748;53.168;5.800;2022-07-11T05:51:25;102451.42000000001;;;18.55;74.66
54856;BME280;40748;53.168;5.800;2022-07-11T05:53:55;102455.15000000001;;;18.61;75.23
54856;BME280;40748;53.168;5.800;2022-07-11T05:56:25;102451.92;;;18.67;74.67
54856;BME280;40748;53.168;5.800;2022-07-11T05:58:55;102450.93;;;18.69;74.55
54856;BME280;40748;53.168;5.800;2022-07-11T06:01:25;102452.53;;;18.74;74.51
54856;BME280;40748;53.168;5.800;2022-07-11T06:03:55;102452.53;;;18.76;74.46
54856;BME280;40748;53.168;5.800;2022-07-11T06:06:25;102451.45999999999;;;18.73;74.29
54856;BME280;40748;53.168;5.800;2022-07-11T06:08:55;102449.37;;;18.79;74.45
54856;BME280;40748;53.168;5.800;2022-07-11T06:11:25;102447.45;;;18.81;74.17
54856;BME280;40748;53.168;5.800;2022-07-11T06:13:55;102443.46;;;18.80;74.14
54856;BME280;40748;53.168;5.800;2022-07-11T06:16:25;102441.72000000002;;;18.83;74.15
54856;BME280;40748;53.168;5.800;2022-07-11T06:18:55;102441.31;;;18.88;74.41
54856;BME280;40748;53.168;5.800;2022-07-11T06:21:25;102438.92000000001;;;18.94;74.30
54856;BME280;40748;53.168;5.800;2022-07-11T06:23:55;102439.60999999999;;;19.01;74.37
54856;BME280;40748;53.168;5.800;2022-07-11T06:26:25;102435.45;;;19.17;74.46
54856;BME280;40748;53.168;5.800;2022-07-11T06:28:55;102435.95;;;19.32;74.58
54856;BME280;40748;53.168;5.800;2022-07-11T06:31:25;102439.87999999999;;;19.48;74.63
54856;BME280;40748;53.168;5.800;2022-07-11T06:33:55;102438.33;;;19.54;74.38
54856;BME280;40748;53.168;5.800;2022-07-11T06:36:25;102439.4;;;19.62;73.96
54856;BME280;40748;53.168;5.800;2022-07-11T06:38:55;102447.91;;;19.67;73.29
54856;BME280;40748;53.168;5.800;2022-07-11T06:41:25;102447.91;;;19.76;73.29
54856;BME280;40748;53.168;5.800;2022-07-11T06:43:55;102453.69;;;20.00;73.54
54856;BME280;40748;53.168;5.800;2022-07-11T06:46:25;102451.01;;;20.35;74.44
54856;BME280;40748;53.168;5.800;2022-07-11T06:48:55;102450.48999999999;;;20.62;74.23
54856;BME280;40748;53.168;5.800;2022-07-11T06:51:25;102452.78000000001;;;20.79;73.54
54856;BME280;40748;53.168;5.800;2022-07-11T06:53:55;102448.28;;;20.90;72.78
54856;BME280;40748;53.168;5.800;2022-07-11T06:56:25;102453.02999999998;;;20.96;72.17
54856;BME280;40748;53.168;5.800;2022-07-11T06:58:55;102462.61;;;20.97;71.05
54856;BME280;40748;53.168;5.800;2022-07-11T07:03:55;102465.31;;;21.04;71.07
54856;BME280;40748;53.168;5.800;2022-07-11T07:06:25;102467.19;;;21.23;71.33
54856;BME280;40748;53.168;5.800;2022-07-11T07:08:55;102460.45;;;21.46;71.54
54856;BME280;40748;53.168;5.800;2022-07-11T07:11:25;102457.69;;;21.70;71.41
54856;BME280;40748;53.168;5.800;2022-07-11T07:13:55;102457.69;;;21.86;71.41
54856;BME280;40748;53.168;5.800;2022-07-11T07:16:25;102456.30000000002;;;22.02;70.82
54856;BME280;40748;53.168;5.800;2022-07-11T07:18:55;102459.56000000001;;;22.20;70.53
54856;BME280;40748;53.168;5.800;2022-07-11T07:21:25;102459.81;;;22.41;70.33
54856;BME280;40748;53.168;5.800;2022-07-11T07:23:55;102459.86;;;22.70;70.49
54856;BME280;40748;53.168;5.800;2022-07-11T07:26:25;102459.23;;;23.10;71.07
54856;BME280;40748;53.168;5.800;2022-07-11T07:28:55;102456.65;;;23.46;71.26
54856;BME280;40748;53.168;5.800;2022-07-11T07:31:25;102467.54000000001;;;23.83;70.99
54856;BME280;40748;53.168;5.800;2022-07-11T07:33:55;102468.58;;;24.10;70.30
54856;BME280;40748;53.168;5.800;2022-07-11T07:36:25;102468.58;;;24.21;70.30
54856;BME280;40748;53.168;5.800;2022-07-11T07:38:55;102467.74;;;24.15;68.03
54856;BME280;40748;53.168;5.800;2022-07-11T07:41:25;102472.03;;;23.97;67.07
54856;BME280;40748;53.168;5.800;2022-07-11T07:43:55;102472.03;;;23.78;66.01
54856;BME280;40748;53.168;5.800;2022-07-11T07:46:25;102468.12;;;23.85;66.05
54856;BME280;40748;53.168;5.800;2022-07-11T07:48:55;102468.68;;;23.97;66.46
54856;BME280;40748;53.168;5.800;2022-07-11T07:51:25;102468.84999999999;;;23.98;65.93
54856;BME280;40748;53.168;5.800;2022-07-11T07:53:55;102471.68999999999;;;23.90;65.35
54856;BME280;40748;53.168;5.800;2022-07-11T07:56:25;102465.22;;;23.84;65.01
54856;BME280;40748;53.168;5.800;2022-07-11T07:58:55;102464.49;;;23.76;64.64
54856;BME280;40748;53.168;5.800;2022-07-11T08:01:25;102467.42;;;23.63;64.09
54856;BME280;40748;53.168;5.800;2022-07-11T08:03:55;102467.76;;;23.45;63.20
54856;BME280;40748;53.168;5.800;2022-07-11T08:06:25;102467.76;;;23.30;63.20
54856;BME280;40748;53.168;5.800;2022-07-11T08:08:55;102474.99;;;23.15;63.08
54856;BME280;40748;53.168;5.800;2022-07-11T08:11:25;102471.19;;;23.08;63.22
54856;BME280;40748;53.168;5.800;2022-07-11T08:13:55;102475.37999999999;;;23.02;63.43
54856;BME280;40748;53.168;5.800;2022-07-11T08:16:25;102477.14000000001;;;23.01;63.69
54856;BME280;40748;53.168;5.800;2022-07-11T08:18:55;102477.74999999999;;;22.97;63.71
54856;BME280;40748;53.168;5.800;2022-07-11T08:21:25;102483.68000000001;;;22.95;63.78
54856;BME280;40748;53.168;5.800;2022-07-11T08:23:55;102477.32;;;23.03;63.85
54856;BME280;40748;53.168;5.800;2022-07-11T08:26:25;102476.92;;;23.19;64.11
54856;BME280;40748;53.168;5.800;2022-07-11T08:28:55;102478.34;;;23.49;65.32
54856;BME280;40748;53.168;5.800;2022-07-11T08:31:25;102478.34;;;23.88;65.32
54856;BME280;40748;53.168;5.800;2022-07-11T08:33:55;102484.38;;;24.15;65.32
54856;BME280;40748;53.168;5.800;2022-07-11T08:36:25;102484.62;;;24.31;64.65
54856;BME280;40748;53.168;5.800;2022-07-11T08:38:55;102481.41;;;24.42;63.64
54856;BME280;40748;53.168;5.800;2022-07-11T08:41:25;102484.99999999999;;;24.72;63.68
54856;BME280;40748;53.168;5.800;2022-07-11T08:43:55;102482.58;;;24.98;64.29
54856;BME280;40748;53.168;5.800;2022-07-11T08:46:25;102483.45;;;25.10;63.90
54856;BME280;40748;53.168;5.800;2022-07-11T08:48:55;102477.74999999999;;;25.02;62.78
54856;BME280;40748;53.168;5.800;2022-07-11T08:51:25;102477.29;;;24.81;61.65
54856;BME280;40748;53.168;5.800;2022-07-11T08:53:55;102480.82999999999;;;24.54;60.93
54856;BME280;40748;53.168;5.800;2022-07-11T08:56:25;102480.97;;;24.29;60.55
54856;BME280;40748;53.168;5.800;2022-07-11T08:58:55;102477.72;;;24.13;60.33
54856;BME280;40748;53.168;5.800;2022-07-11T09:01:25;102479.85;;;24.06;60.59
54856;BME280;40748;53.168;5.800;2022-07-11T09:03:55;102476.38999999998;;;24.03;61.04
54856;BME280;40748;53.168;5.800;2022-07-11T09:06:25;102473.08;;;24.06;61.22
54856;BME280;40748;53.168;5.800;2022-07-11T09:08:56;102473.6;;;24.11;61.27
54856;BME280;40748;53.168;5.800;2022-07-11T09:11:25;102468.92;;;24.20;61.38
54856;BME280;40748;53.168;5.800;2022-07-11T09:13:55;102467.48;;;24.71;61.98
54856;BME280;40748;53.168;5.800;2022-07-11T09:16:25;102466.63;;;25.49;64.30
54856;BME280;40748;53.168;5.800;2022-07-11T09:18:55;102463.34;;;25.94;64.23
54856;BME280;40748;53.168;5.800;2022-07-11T09:21:25;102467.91;;;26.00;62.85
54856;BME280;40748;53.168;5.800;2022-07-11T09:23:55;102468.92;;;25.82;61.04
54856;BME280;40748;53.168;5.800;2022-07-11T09:26:25;102470.83;;;25.48;59.90
54856;BME280;40748;53.168;5.800;2022-07-11T09:28:59;102463.9;;;25.26;58.80
54856;BME280;40748;53.168;5.800;2022-07-11T09:31:27;102466.14;;;24.99;58.71
54856;BME280;40748;53.168;5.800;2022-07-11T09:33:58;102471.18000000001;;;24.72;58.40
54856;BME280;40748;53.168;5.800;2022-07-11T09:36:32;102472.06000000001;;;24.54;58.39
54856;BME280;40748;53.168;5.800;2022-07-11T09:38:55;102472.06000000001;;;24.38;58.42
54856;BME280;40748;53.168;5.800;2022-07-11T09:41:25;102474.82;;;24.24;58.56
54856;BME280;40748;53.168;5.800;2022-07-11T09:43:56;102472.88;;;24.15;58.64
54856;BME280;40748;53.168;5.800;2022-07-11T09:46:25;102477.10999999999;;;24.08;58.97
54856;BME280;40748;53.168;5.800;2022-07-11T09:48:55;102476.71;;;24.05;58.95
54856;BME280;40748;53.168;5.800;2022-07-11T09:51:25;102474.48999999999;;;24.03;59.31
54856;BME280;40748;53.168;5.800;2022-07-11T09:53:55;102474.48999999999;;;24.06;59.31
54856;BME280;40748;53.168;5.800;2022-07-11T09:56:26;102474.37999999999;;;24.46;60.12
54856;BME280;40748;53.168;5.800;2022-07-11T09:58:58;102474.40999999999;;;25.24;62.21
54856;BME280;40748;53.168;5.800;2022-07-11T10:01:25;102466.54000000001;;;25.87;62.65
54856;BME280;40748;53.168;5.800;2022-07-11T10:03:55;102466.17000000001;;;26.15;61.62
54856;BME280;40748;53.168;5.800;2022-07-11T10:06:25;102468.57;;;26.25;60.39
54856;BME280;40748;53.168;5.800;2022-07-11T10:08:55;102469.29000000001;;;26.18;59.36
54856;BME280;40748;53.168;5.800;2022-07-11T10:11:25;102470.46;;;26.04;58.62
54856;BME280;40748;53.168;5.800;2022-07-11T10:13:55;102468.15;;;25.82;58.03
54856;BME280;40748;53.168;5.800;2022-07-11T10:16:27;102469.98000000001;;;25.68;57.48
54856;BME280;40748;53.168;5.800;2022-07-11T10:18:57;102469.98000000001;;;25.54;57.48
54856;BME280;40748;53.168;5.800;2022-07-11T10:21:26;102467.3;;;25.45;57.41
54856;BME280;40748;53.168;5.800;2022-07-11T10:23:57;102467.5;;;25.34;57.51
54856;BME280;40748;53.168;5.800;2022-07-11T10:26:26;102461.54;;;25.33;57.62
54856;BME280;40748;53.168;5.800;2022-07-11T10:28:56;102468.63;;;25.37;57.78
54856;BME280;40748;53.168;5.800;2022-07-11T10:31:25;102468.31999999999;;;25.43;57.81
54856;BME280;40748;53.168;5.800;2022-07-11T10:34:03;102467.18000000001;;;25.51;57.90
54856;BME280;40748;53.168;5.800;2022-07-11T10:36:25;102477.93999999999;;;25.65;58.24
54856;BME280;40748;53.168;5.800;2022-07-11T10:41:25;102488.98999999999;;;25.98;58.21
54856;BME280;40748;53.168;5.800;2022-07-11T10:43:57;102487.77;;;26.03;58.13
54856;BME280;40748;53.168;5.800;2022-07-11T10:46:26;102486.04000000001;;;26.07;57.53
54856;BME280;40748;53.168;5.800;2022-07-11T10:48:58;102486.04000000001;;;26.15;57.53
54856;BME280;40748;53.168;5.800;2022-07-11T10:51:27;102490.26;;;26.30;57.65
54856;BME280;40748;53.168;5.800;2022-07-11T10:53:55;102495.17000000001;;;26.43;57.87
54856;BME280;40748;53.168;5.800;2022-07-11T10:58:57;102490.3;;;26.75;57.58
54856;BME280;40748;53.168;5.800;2022-07-11T11:01:25;102494.20999999999;;;26.82;57.12
54856;BME280;40748;53.168;5.800;2022-07-11T11:04:40;102499.73999999999;;;26.80;56.86
54856;BME280;40748;53.168;5.800;2022-07-11T11:06:25;102502.36;;;26.78;56.69
54856;BME280;40748;53.168;5.800;2022-07-11T11:08:55;102499.07;;;26.68;56.23
54856;BME280;40748;53.168;5.800;2022-07-11T11:16:25;102502.87000000001;;;26.27;55.18
54856;BME280;40748;53.168;5.800;2022-07-11T11:18:55;102502.87000000001;;;26.11;55.18
54856;BME280;40748;53.168;5.800;2022-07-11T11:21:25;102501.35;;;26.04;55.14
54856;BME280;40748;53.168;5.800;2022-07-11T11:24:01;102502.09;;;26.02;55.41
54856;BME280;40748;53.168;5.800;2022-07-11T11:26:25;102498.11;;;26.06;55.65
54856;BME280;40748;53.168;5.800;2022-07-11T11:28:55;102498.11;;;26.13;55.79
54856;BME280;40748;53.168;5.800;2022-07-11T11:31:25;102500.56999999999;;;26.14;55.78
54856;BME280;40748;53.168;5.800;2022-07-11T11:33:55;102498.11;;;26.09;55.50
54856;BME280;40748;53.168;5.800;2022-07-11T11:36:25;102497.51000000001;;;26.06;55.51
54856;BME280;40748;53.168;5.800;2022-07-11T11:38:55;102497.89000000001;;;26.07;55.39
54856;BME280;40748;53.168;5.800;2022-07-11T11:41:25;102498.17;;;26.02;55.33
54856;BME280;40748;53.168;5.800;2022-07-11T11:43:55;102500.63;;;25.88;55.17
54856;BME280;40748;53.168;5.800;2022-07-11T11:51:26;102494.43000000001;;;25.87;55.33
54856;BME280;40748;53.168;5.800;2022-07-11T11:53:56;102496.91;;;25.85;55.37
54856;BME280;40748;53.168;5.800;2022-07-11T11:56:25;102497.08;;;25.90;55.51
54856;BME280;40748;53.168;5.800;2022-07-11T11:58:55;102498.1;;;25.92;55.51
54856;BME280;40748;53.168;5.800;2022-07-11T12:01:25;102493.59;;;25.96;55.29
54856;BME280;40748;53.168;5.800;2022-07-11T12:03:55;102493.12999999999;;;26.00;55.64
54856;BME280;40748;53.168;5.800;2022-07-11T12:06:25;102493.12999999999;;;26.06;55.64
54856;BME280;40748;53.168;5.800;2022-07-11T12:08:58;102505.0;;;26.08;55.20
54856;BME280;40748;53.168;5.800;2022-07-11T12:11:25;102505.0;;;26.05;55.20
54856;BME280;40748;53.168;5.800;2022-07-11T12:13:55;102500.12;;;25.96;54.97
54856;BME280;40748;53.168;5.800;2022-07-11T12:16:25;102501.30999999998;;;25.90;55.09
54856;BME280;40748;53.168;5.800;2022-07-11T12:18:55;102503.64;;;25.87;55.05
54856;BME280;40748;53.168;5.800;2022-07-11T12:21:25;102503.72;;;25.80;54.85
54856;BME280;40748;53.168;5.800;2022-07-11T12:23:55;102500.01;;;25.74;54.86
54856;BME280;40748;53.168;5.800;2022-07-11T12:26:26;102495.98000000001;;;25.82;55.16
54856;BME280;40748;53.168;5.800;2022-07-11T12:29:03;102500.66999999998;;;25.93;55.54
54856;BME280;40748;53.168;5.800;2022-07-11T12:31:25;102499.68;;;26.02;55.50
54856;BME280;40748;53.168;5.800;2022-07-11T12:33:55;102498.18000000001;;;26.03;55.43
54856;BME280;40748;53.168;5.800;2022-07-11T12:36:31;102498.18000000001;;;25.87;55.43
54856;BME280;40748;53.168;5.800;2022-07-11T12:38:55;102501.37999999999;;;25.94;54.56
54856;BME280;40748;53.168;5.800;2022-07-11T12:41:25;102502.33;;;25.93;55.10
54856;BME280;40748;53.168;5.800;2022-07-11T12:43:55;102499.65999999999;;;25.86;54.88
54856;BME280;40748;53.168;5.800;2022-07-11T12:46:25;102498.93;;;25.84;54.97
54856;BME280;40748;53.168;5.800;2022-07-11T12:48:55;102497.63;;;25.85;55.19
54856;BME280;40748;53.168;5.800;2022-07-11T12:51:26;102497.63;;;25.88;55.19
54856;BME280;40748;53.168;5.800;2022-07-11T12:53:58;102496.12;;;25.85;55.10
54856;BME280;40748;53.168;5.800;2022-07-11T12:56:25;102489.36000000002;;;25.86;55.02
54856;BME280;40748;53.168;5.800;2022-07-11T12:58:55;102489.36000000002;;;25.84;54.76
54856;BME280;40748;53.168;5.800;2022-07-11T13:01:25;102488.68;;;25.79;54.65
54856;BME280;40748;53.168;5.800;2022-07-11T13:03:55;102488.68;;;25.77;54.58
54856;BME280;40748;53.168;5.800;2022-07-11T13:06:25;102489.42;;;25.79;54.50
54856;BME280;40748;53.168;5.800;2022-07-11T13:08:55;102492.87;;;25.84;54.48
54856;BME280;40748;53.168;5.800;2022-07-11T13:11:25;102488.43;;;25.87;54.37
54856;BME280;40748;53.168;5.800;2022-07-11T13:16:25;102493.66;;;25.85;54.23
54856;BME280;40748;53.168;5.800;2022-07-11T13:18:55;102492.43;;;25.79;54.01
54856;BME280;40748;53.168;5.800;2022-07-11T13:21:25;102498.73;;;25.75;54.02
54856;BME280;40748;53.168;5.800;2022-07-11T13:23:55;102502.16;;;25.73;54.28
54856;BME280;40748;53.168;5.800;2022-07-11T13:26:25;102499.56999999999;;;25.77;54.63
54856;BME280;40748;53.168;5.800;2022-07-11T13:28:55;102500.50000000001;;;25.82;54.63
54856;BME280;40748;53.168;5.800;2022-07-11T13:31:25;102500.50000000001;;;25.87;54.74
54856;BME280;40748;53.168;5.800;2022-07-11T13:33:55;102502.65999999999;;;25.90;54.77
54856;BME280;40748;53.168;5.800;2022-07-11T13:36:25;102502.08;;;25.83;54.12
54856;BME280;40748;53.168;5.800;2022-07-11T13:38:55;102506.36;;;25.82;54.35
54856;BME280;40748;53.168;5.800;2022-07-11T13:41:25;102504.01999999999;;;25.83;54.19
54856;BME280;40748;53.168;5.800;2022-07-11T13:43:55;102503.34;;;25.78;54.33